Time;durP1;ratioP1;P1;durP2;ratioP2;P2;SDS_P1;SDS_P2;PMS_P1;PMS_P2;Temp;Humidity;BMP_temperature;BMP_pressure;BME280_temperature;BME280_humidity;BME280_pressure;Samples;Min_cycle;Max_cycle;Signal;HPM_P1;HPM_P2
2022/04/15 00:00:50;;;;;;;1.38;0.60;;;17.90;51.20;;;;;;5114527;28;20047;-65
2022/04/15 00:03:15;;;;;;;1.77;0.50;;;17.80;51.10;;;;;;5112935;28;20040;-65
2022/04/15 00:05:41;;;;;;;3.00;0.55;;;17.80;51.90;;;;;;5113385;28;20051;-66
2022/04/15 00:08:09;;;;;;;1.40;0.43;;;17.80;51.10;;;;;;5113047;28;20046;-66
2022/04/15 00:10:36;;;;;;;2.00;0.57;;;17.80;51.10;;;;;;5114069;28;20102;-66
2022/04/15 00:13:03;;;;;;;1.75;0.47;;;17.80;51.10;;;;;;5112965;28;20039;-66
2022/04/15 00:15:29;;;;;;;1.23;0.63;;;17.80;51.10;;;;;;5113058;28;20044;-65
2022/04/15 00:17:55;;;;;;;1.67;0.55;;;17.80;51.20;;;;;;5114133;28;20059;-66
2022/04/15 00:20:21;;;;;;;1.25;0.50;;;17.80;51.10;;;;;;5112685;28;20398;-65
2022/04/15 00:22:47;;;;;;;2.17;0.50;;;17.80;51.10;;;;;;5112704;28;20051;-66
2022/04/15 00:25:16;;;;;;;2.15;0.50;;;17.70;51.10;;;;;;5111804;28;20039;-65
2022/04/15 00:27:42;;;;;;;1.48;0.32;;;17.70;51.00;;;;;;5112909;28;20032;-64
2022/04/15 00:30:12;;;;;;;2.15;0.47;;;17.70;51.00;;;;;;5112481;28;20399;-66
2022/04/15 00:32:39;;;;;;;2.45;0.40;;;17.70;51.10;;;;;;5113796;28;20066;-65
2022/04/15 00:35:06;;;;;;;1.90;0.50;;;17.70;51.00;;;;;;5112351;28;20050;-66
2022/04/15 00:37:31;;;;;;;2.15;0.68;;;17.70;51.00;;;;;;5112656;28;20043;-65
2022/04/15 00:39:58;;;;;;;2.78;0.50;;;17.70;51.10;;;;;;5113503;28;20130;-64
2022/04/15 00:42:24;;;;;;;3.30;0.40;;;17.70;51.00;;;;;;5113528;28;20496;-66
2022/04/15 00:44:58;;;;;;;1.70;0.45;;;17.70;51.10;;;;;;5112487;28;20039;-65
2022/04/15 00:50:04;;;;;;;2.50;0.40;;;17.60;51.00;;;;;;5130273;27;20387;-66
2022/04/15 00:52:38;;;;;;;1.95;0.40;;;17.60;51.00;;;;;;5128962;28;20047;-65
2022/04/15 00:55:05;;;;;;;1.65;0.50;;;17.60;51.00;;;;;;5130189;28;20371;-64
2022/04/15 00:57:33;;;;;;;2.67;0.63;;;17.60;51.00;;;;;;5130492;28;20043;-66
2022/04/15 01:00:01;;;;;;;1.95;0.40;;;17.60;51.00;;;;;;5130953;27;20039;-65
2022/04/15 01:02:28;;;;;;;1.48;0.38;;;17.60;51.00;;;;;;5132343;27;20155;-67
2022/04/15 01:04:58;;;;;;;1.45;0.40;;;17.50;50.90;;;;;;5131108;28;20047;-66
2022/04/15 01:07:26;;;;;;;1.17;0.33;;;17.50;50.90;;;;;;5130705;28;20122;-67
2022/04/15 01:09:53;;;;;;;2.83;0.57;;;17.50;50.80;;;;;;5129348;28;20096;-65
2022/04/15 01:12:22;;;;;;;1.67;0.40;;;17.50;50.80;;;;;;5129807;27;20079;-66
2022/04/15 01:14:49;;;;;;;1.98;0.50;;;17.50;50.80;;;;;;5129926;27;20122;-67
2022/04/15 01:17:15;;;;;;;2.88;0.38;;;17.50;50.80;;;;;;5129358;28;20032;-65
2022/04/15 01:19:41;;;;;;;3.40;0.77;;;17.50;50.80;;;;;;5129309;28;20043;-66
2022/04/15 01:22:14;;;;;;;2.97;0.50;;;17.50;50.70;;;;;;5129785;28;20371;-66
2022/04/15 01:24:40;;;;;;;1.90;0.50;;;17.50;50.70;;;;;;5130466;27;20032;-66
2022/04/15 01:27:07;;;;;;;2.20;0.52;;;17.50;50.70;;;;;;5130030;27;20035;-66
2022/04/15 01:29:37;;;;;;;1.23;0.40;;;17.50;50.80;;;;;;5128309;28;20040;-66
2022/04/15 01:32:04;;;;;;;;;;;17.50;50.70;;;;;;5130129;27;20044;-65
2022/04/15 01:34:30;;;;;;;1.10;0.45;;;17.40;50.70;;;;;;5128475;28;19998;-65
2022/04/15 01:36:57;;;;;;;2.80;0.47;;;17.40;50.70;;;;;;5128403;28;20356;-65
2022/04/15 01:39:23;;;;;;;1.95;0.63;;;17.40;50.70;;;;;;5129411;27;20047;-66
2022/04/15 01:41:48;;;;;;;4.18;0.60;;;17.40;50.60;;;;;;5129306;28;20168;-65
2022/04/15 01:44:15;;;;;;;1.10;0.45;;;17.40;50.70;;;;;;5129293;28;20039;-65
2022/04/15 01:46:42;;;;;;;1.75;0.38;;;17.40;50.60;;;;;;5128123;28;20043;-65
2022/04/15 01:49:08;;;;;;;2.63;0.52;;;17.40;50.60;;;;;;5128770;27;20044;-66
2022/04/15 01:51:35;;;;;;;3.30;0.47;;;17.40;50.70;;;;;;5129154;28;20126;-66
2022/04/15 01:54:01;;;;;;;2.00;0.38;;;17.30;50.60;;;;;;5128023;28;20047;-65
2022/04/15 01:56:27;;;;;;;1.85;0.47;;;17.40;50.60;;;;;;5129189;27;20035;-65
2022/04/15 01:58:53;;;;;;;2.58;0.50;;;17.40;50.60;;;;;;5127868;28;20049;-65
2022/04/15 02:01:19;;;;;;;2.08;0.50;;;17.30;50.50;;;;;;5114643;28;20479;-66
2022/04/15 02:03:44;;;;;;;1.52;0.50;;;17.30;50.50;;;;;;5113812;28;20081;-64
2022/04/15 02:06:13;;;;;;;3.03;0.60;;;17.30;50.50;;;;;;5115003;28;20046;-65
2022/04/15 02:08:38;;;;;;;2.55;0.85;;;17.30;50.50;;;;;;5115191;28;20039;-65
2022/04/15 02:11:04;;;;;;;1.10;0.40;;;17.30;50.50;;;;;;5113811;28;20039;-65
2022/04/15 02:13:30;;;;;;;2.05;0.43;;;17.30;50.50;;;;;;5113752;28;20042;-65
2022/04/15 02:15:56;;;;;;;1.30;0.40;;;17.30;50.50;;;;;;5113776;28;20051;-65
2022/04/15 02:18:21;;;;;;;1.15;0.30;;;17.30;50.50;;;;;;5114860;28;20100;-65
2022/04/15 02:20:47;;;;;;;1.50;0.45;;;17.30;50.50;;;;;;5113783;28;20116;-66
2022/04/15 02:23:12;;;;;;;1.73;0.32;;;17.30;50.50;;;;;;5113502;28;20048;-66
2022/04/15 02:25:41;;;;;;;3.53;0.50;;;17.30;50.50;;;;;;5113635;28;20103;-65
2022/04/15 02:28:06;;;;;;;1.40;0.50;;;17.30;50.50;;;;;;5114902;28;20048;-65
2022/04/15 02:30:32;;;;;;;1.27;0.35;;;17.30;50.50;;;;;;5113729;28;20475;-65
2022/04/15 02:32:58;;;;;;;2.08;0.40;;;17.30;50.50;;;;;;5113698;28;20043;-65
2022/04/15 02:35:23;;;;;;;3.35;0.70;;;17.30;50.40;;;;;;5113462;28;20454;-66
2022/04/15 02:37:49;;;;;;;1.85;0.40;;;17.30;50.50;;;;;;5115103;28;20483;-65
2022/04/15 02:40:14;;;;;;;1.17;0.40;;;17.20;50.40;;;;;;5114460;28;20547;-65
2022/04/15 02:42:43;;;;;;;1.23;0.40;;;17.30;50.40;;;;;;5113151;28;20073;-64
2022/04/15 02:45:10;;;;;;;2.60;0.73;;;17.30;50.40;;;;;;5114395;28;20483;-65
2022/04/15 02:47:40;;;;;;;1.25;0.30;;;17.30;50.40;;;;;;5113456;28;20061;-65
2022/04/15 02:50:06;;;;;;;1.95;0.47;;;17.20;50.30;;;;;;5113258;28;20051;-66
2022/04/15 02:52:34;;;;;;;1.83;0.50;;;17.20;50.30;;;;;;5113299;28;20055;-61
2022/04/15 02:55:00;;;;;;;1.00;0.30;;;17.20;50.30;;;;;;5113062;28;20039;-66
2022/04/15 02:57:25;;;;;;;2.10;0.47;;;17.20;50.30;;;;;;5112488;28;20039;-66
2022/04/15 02:59:51;;;;;;;1.67;0.30;;;17.20;50.30;;;;;;5112841;28;20067;-65
2022/04/15 03:02:17;;;;;;;1.60;0.40;;;17.20;51.10;;;;;;5114171;28;20039;-65
2022/04/15 03:04:45;;;;;;;2.00;0.45;;;17.20;50.30;;;;;;5112696;28;20080;-66
2022/04/15 03:07:11;;;;;;;1.35;0.30;;;17.20;50.30;;;;;;5113946;28;20057;-66
2022/04/15 03:09:40;;;;;;;0.73;0.32;;;17.20;50.30;;;;;;5112633;28;20269;-65
2022/04/15 03:12:06;;;;;;;1.17;0.60;;;17.20;50.30;;;;;;5111672;28;20050;-65
2022/04/15 03:14:31;;;;;;;0.85;0.30;;;17.20;50.30;;;;;;5112843;28;20032;-60
2022/04/15 03:16:57;;;;;;;1.92;0.50;;;17.20;50.30;;;;;;5112537;28;20475;-65
2022/04/15 03:19:22;;;;;;;1.10;0.30;;;17.20;50.40;;;;;;5113751;28;20043;-65
2022/04/15 03:21:48;;;;;;;1.55;0.50;;;17.20;50.40;;;;;;5112647;28;20039;-65
2022/04/15 03:24:14;;;;;;;1.00;0.30;;;17.20;50.30;;;;;;5113703;28;20421;-64
2022/04/15 03:26:39;;;;;;;1.45;0.47;;;17.10;50.30;;;;;;5113612;28;20118;-66
2022/04/15 03:29:05;;;;;;;1.95;0.50;;;17.10;50.30;;;;;;5113563;28;20390;-65
2022/04/15 03:31:30;;;;;;;1.23;0.30;;;17.10;50.30;;;;;;5113463;28;20042;-65
2022/04/15 03:33:56;;;;;;;2.25;0.50;;;17.10;51.00;;;;;;5112190;28;20047;-65
2022/04/15 03:36:22;;;;;;;1.17;0.20;;;17.10;50.30;;;;;;5112032;28;20071;-65
2022/04/15 03:38:48;;;;;;;1.00;0.35;;;17.10;50.30;;;;;;5112135;28;20071;-66
2022/04/15 03:41:13;;;;;;;0.77;0.43;;;17.10;50.30;;;;;;5112337;28;20035;-65
2022/04/15 03:43:40;;;;;;;0.95;0.40;;;17.10;50.30;;;;;;5112011;28;20043;-65
2022/04/15 03:46:06;;;;;;;0.93;0.40;;;17.10;50.30;;;;;;5111971;28;20074;-65
2022/04/15 03:48:33;;;;;;;1.25;0.50;;;17.00;50.30;;;;;;5111773;28;20082;-65
2022/04/15 03:50:58;;;;;;;1.92;0.45;;;17.10;50.30;;;;;;5111943;28;20052;-64
2022/04/15 03:53:24;;;;;;;0.75;0.30;;;17.10;50.30;;;;;;5111862;28;20076;-66
2022/04/15 03:55:52;;;;;;;1.35;0.40;;;17.10;50.30;;;;;;5113051;28;20323;-66
2022/04/15 03:58:18;;;;;;;1.10;0.45;;;17.00;50.20;;;;;;5112001;28;20043;-66
2022/04/15 04:00:45;;;;;;;1.00;0.30;;;17.00;50.30;;;;;;5111976;28;20173;-65
2022/04/15 04:03:11;;;;;;;1.00;0.20;;;17.00;50.30;;;;;;5111873;28;20051;-64
2022/04/15 04:05:36;;;;;;;1.13;0.30;;;17.10;50.40;;;;;;5111645;28;20047;-63
2022/04/15 04:08:02;;;;;;;0.98;0.40;;;17.00;50.30;;;;;;5112946;28;20047;-65
2022/04/15 04:10:28;;;;;;;1.15;0.50;;;17.00;50.40;;;;;;5112789;28;20046;-63
2022/04/15 04:12:58;;;;;;;1.25;0.30;;;17.00;50.40;;;;;;5111730;28;20532;-65
2022/04/15 04:15:23;;;;;;;1.92;0.82;;;17.00;50.40;;;;;;5111477;28;20163;-61
2022/04/15 04:17:52;;;;;;;1.85;0.47;;;17.00;51.10;;;;;;5111380;28;20079;-66
2022/04/15 04:20:17;;;;;;;2.10;0.40;;;16.90;50.30;;;;;;5111586;28;20036;-64
2022/04/15 04:22:43;;;;;;;1.05;0.30;;;17.00;51.10;;;;;;5112344;28;20406;-65
2022/04/15 04:25:09;;;;;;;1.38;0.30;;;17.00;50.30;;;;;;5111305;28;20089;-65
2022/04/15 04:27:39;;;;;;;1.70;0.40;;;17.00;50.40;;;;;;5112635;28;20085;-65
2022/04/15 04:30:07;;;;;;;0.93;0.30;;;17.00;50.40;;;;;;5112547;28;20043;-65
2022/04/15 04:32:33;;;;;;;1.58;0.20;;;17.00;50.40;;;;;;5111423;28;20502;-64
2022/04/15 04:34:59;;;;;;;1.05;0.30;;;16.90;50.30;;;;;;5112455;28;20031;-65
2022/04/15 04:37:24;;;;;;;1.25;0.40;;;17.00;50.40;;;;;;5112377;28;20217;-64
2022/04/15 04:39:50;;;;;;;0.75;0.30;;;16.90;50.30;;;;;;5111514;28;20062;-65
2022/04/15 04:42:16;;;;;;;0.82;0.38;;;16.90;50.40;;;;;;5112444;28;20506;-64
2022/04/15 04:44:42;;;;;;;1.80;0.40;;;16.90;50.40;;;;;;5111402;28;20039;-65
2022/04/15 04:47:09;;;;;;;0.75;0.20;;;16.90;50.40;;;;;;5111335;28;20077;-65
2022/04/15 04:49:36;;;;;;;0.88;0.50;;;16.90;50.40;;;;;;5110845;28;20050;-65
2022/04/15 04:52:03;;;;;;;1.33;0.30;;;16.90;50.40;;;;;;5111190;28;20446;-65
2022/04/15 04:54:30;;;;;;;1.17;0.35;;;16.90;50.40;;;;;;5111118;28;20073;-64
2022/04/15 04:56:56;;;;;;;0.98;0.28;;;16.90;50.40;;;;;;5111007;28;20050;-65
2022/04/15 04:59:25;;;;;;;0.68;0.30;;;16.90;50.40;;;;;;5110723;28;20035;-65
2022/04/15 05:01:51;;;;;;;1.23;0.50;;;16.90;50.30;;;;;;5111014;28;20039;-65
2022/04/15 05:04:19;;;;;;;0.70;0.28;;;16.90;50.40;;;;;;5110853;28;20130;-66
2022/04/15 05:06:45;;;;;;;1.38;0.40;;;16.90;50.40;;;;;;5110779;28;20185;-65
2022/04/15 05:09:15;;;;;;;2.47;0.30;;;16.90;50.40;;;;;;5112223;28;20148;-61
2022/04/15 05:11:41;;;;;;;2.03;0.30;;;16.90;50.30;;;;;;5111093;28;20447;-66
2022/04/15 05:14:06;;;;;;;1.08;0.30;;;16.90;50.40;;;;;;5112050;28;20114;-65
2022/04/15 05:16:32;;;;;;;3.28;0.50;;;16.90;50.40;;;;;;5110972;28;20092;-60
2022/04/15 05:18:58;;;;;;;3.03;1.10;;;16.90;50.40;;;;;;5111976;28;20437;-64
2022/04/15 05:21:23;;;;;;;1.35;0.57;;;16.90;50.40;;;;;;5111897;28;20051;-62
2022/04/15 05:23:52;;;;;;;1.27;0.25;;;16.80;50.30;;;;;;5110840;28;20040;-61
2022/04/15 05:26:17;;;;;;;0.95;0.30;;;16.90;50.40;;;;;;5110636;28;20390;-64
2022/04/15 05:28:43;;;;;;;1.63;0.30;;;16.90;50.40;;;;;;5093622;28;20047;-62
2022/04/15 05:31:09;;;;;;;1.73;0.40;;;16.80;50.30;;;;;;5111941;28;20035;-64
2022/04/15 05:33:35;;;;;;;1.33;0.35;;;16.80;50.40;;;;;;5111901;28;20108;-64
2022/04/15 05:36:01;;;;;;;0.82;0.20;;;16.80;50.40;;;;;;5113182;28;20471;-64
2022/04/15 05:38:27;;;;;;;0.63;0.30;;;16.80;50.40;;;;;;5114906;28;20124;-64
2022/04/15 05:40:53;;;;;;;0.93;0.30;;;16.80;50.40;;;;;;5114363;28;20077;-63
2022/04/15 05:43:19;;;;;;;1.20;0.40;;;16.80;50.50;;;;;;5115733;28;20043;-64
2022/04/15 05:45:44;;;;;;;1.15;0.32;;;16.80;50.50;;;;;;5115597;28;20036;-62
2022/04/15 05:48:10;;;;;;;3.75;0.52;;;16.80;50.50;;;;;;5113928;28;20048;-65
2022/04/15 05:50:39;;;;;;;0.63;0.22;;;16.70;50.50;;;;;;5114437;28;20081;-65
2022/04/15 05:53:04;;;;;;;0.73;0.20;;;16.80;50.60;;;;;;5114450;28;20089;-65
2022/04/15 05:55:30;;;;;;;0.90;0.30;;;16.80;50.50;;;;;;5114106;28;20084;-64
2022/04/15 05:57:55;;;;;;;1.00;0.30;;;16.80;50.50;;;;;;5114131;28;20044;-63
2022/04/15 06:00:21;;;;;;;1.73;0.30;;;16.80;50.50;;;;;;5115274;28;20071;-60
2022/04/15 06:02:47;;;;;;;0.80;0.20;;;16.70;50.50;;;;;;5115420;28;20118;-64
2022/04/15 06:05:12;;;;;;;1.10;0.20;;;16.80;50.50;;;;;;5113911;28;20040;-65
2022/04/15 06:07:38;;;;;;;1.58;0.30;;;16.80;50.50;;;;;;5113942;28;20039;-65
2022/04/15 06:10:05;;;;;;;1.80;0.20;;;16.80;50.50;;;;;;5115310;28;20075;-65
2022/04/15 06:12:54;;;;;;;0.90;0.30;;;16.80;50.50;;;;;;5113798;28;20110;-64
2022/04/15 06:15:20;;;;;;;1.13;0.40;;;16.80;50.40;;;;;;5113816;28;20048;-66
2022/04/15 06:17:46;;;;;;;1.45;0.20;;;16.80;50.50;;;;;;5115021;28;20040;-64
2022/04/15 06:20:12;;;;;;;0.68;0.20;;;16.80;50.50;;;;;;5113881;28;20040;-64
2022/04/15 06:22:40;;;;;;;1.02;0.20;;;16.80;50.50;;;;;;5114854;28;20047;-65
2022/04/15 06:25:06;;;;;;;0.60;0.20;;;16.80;50.40;;;;;;5115019;28;20441;-61
2022/04/15 06:27:32;;;;;;;0.82;0.20;;;16.80;50.40;;;;;;5113717;28;20040;-65
2022/04/15 06:29:57;;;;;;;1.30;0.20;;;16.80;50.40;;;;;;5113501;28;20424;-65
2022/04/15 06:32:23;;;;;;;1.25;0.40;;;16.80;50.40;;;;;;5114650;28;20372;-64
2022/04/15 06:34:48;;;;;;;0.90;0.20;;;16.80;50.30;;;;;;5114570;28;20043;-64
2022/04/15 06:37:14;;;;;;;0.45;0.20;;;16.80;50.30;;;;;;5114799;28;20391;-66
2022/04/15 06:39:40;;;;;;;0.85;0.30;;;16.80;50.30;;;;;;5114637;28;20032;-64
2022/04/15 06:42:05;;;;;;;1.00;0.20;;;16.80;50.30;;;;;;5114506;28;20062;-64
2022/04/15 06:44:35;;;;;;;0.50;0.20;;;16.80;50.30;;;;;;5114538;28;20391;-64
2022/04/15 06:47:01;;;;;;;1.13;0.20;;;16.70;50.20;;;;;;5113428;28;20035;-64
2022/04/15 06:49:27;;;;;;;0.80;0.30;;;16.70;50.20;;;;;;5113951;28;20788;-64
2022/04/15 06:51:52;;;;;;;0.50;0.20;;;16.70;50.20;;;;;;5113258;28;20060;-64
2022/04/15 06:54:18;;;;;;;0.65;0.20;;;16.70;50.30;;;;;;5113283;28;20043;-63
2022/04/15 06:56:43;;;;;;;1.27;0.30;;;16.70;50.30;;;;;;5112992;28;20391;-64
2022/04/15 06:59:09;;;;;;;0.90;0.20;;;16.70;50.20;;;;;;5114561;28;20039;-61
2022/04/15 07:01:35;;;;;;;0.40;0.20;;;16.70;50.30;;;;;;5113270;28;20093;-66
2022/04/15 07:04:02;;;;;;;0.90;0.38;;;16.70;50.30;;;;;;5114368;28;20522;-64
2022/04/15 07:06:29;;;;;;;0.50;0.20;;;16.70;50.30;;;;;;5114545;28;20058;-64
2022/04/15 07:08:54;;;;;;;1.38;0.32;;;16.70;50.20;;;;;;5112805;28;20043;-64
2022/04/15 07:11:20;;;;;;;0.88;0.20;;;16.60;50.20;;;;;;5112665;28;20440;-63
2022/04/15 07:13:46;;;;;;;0.50;0.32;;;16.70;50.30;;;;;;5112650;28;20042;-64
2022/04/15 07:16:13;;;;;;;0.50;0.20;;;16.60;50.20;;;;;;5112875;28;20032;-65
2022/04/15 07:18:38;;;;;;;0.80;0.20;;;16.60;50.20;;;;;;5112815;28;20089;-61
2022/04/15 07:21:04;;;;;;;0.47;0.10;;;16.60;50.20;;;;;;5112736;28;20375;-63
2022/04/15 07:23:29;;;;;;;0.60;0.20;;;16.60;50.10;;;;;;5112607;28;20544;-64
2022/04/15 07:25:58;;;;;;;0.82;0.30;;;16.60;50.20;;;;;;5113900;28;20042;-64
2022/04/15 07:28:24;;;;;;;1.02;0.20;;;16.60;50.20;;;;;;5113517;28;20118;-64
2022/04/15 07:30:49;;;;;;;1.35;0.10;;;16.60;50.20;;;;;;5112292;28;20472;-64
2022/04/15 07:33:16;;;;;;;0.57;0.25;;;16.60;50.20;;;;;;5112204;28;20092;-61
2022/04/15 07:35:42;;;;;;;0.80;0.28;;;16.60;50.30;;;;;;5112168;28;20050;-64
2022/04/15 07:38:07;;;;;;;0.57;0.20;;;16.60;50.20;;;;;;5112302;28;20044;-67
2022/04/15 07:40:33;;;;;;;1.17;0.28;;;16.60;50.20;;;;;;5112185;28;20552;-68
2022/04/15 07:42:58;;;;;;;1.00;0.20;;;16.60;50.20;;;;;;5113380;28;20120;-66
2022/04/15 07:45:24;;;;;;;0.85;0.20;;;16.60;50.30;;;;;;5112375;28;20068;-67
2022/04/15 07:47:50;;;;;;;1.17;0.20;;;16.60;50.30;;;;;;5111630;28;20073;-66
2022/04/15 07:50:21;;;;;;;0.68;0.20;;;16.50;50.20;;;;;;5111894;28;20051;-66
2022/04/15 07:52:47;;;;;;;0.90;0.30;;;16.50;51.00;;;;;;5111881;28;20043;-63
2022/04/15 07:55:12;;;;;;;0.47;0.20;;;16.50;50.20;;;;;;5113086;28;20040;-66
2022/04/15 07:57:38;;;;;;;0.73;0.20;;;16.50;50.20;;;;;;5111638;28;20035;-62
2022/04/15 08:00:04;;;;;;;0.57;0.20;;;16.50;50.20;;;;;;5111643;28;20542;-66
2022/04/15 08:02:30;;;;;;;0.75;0.20;;;16.50;50.20;;;;;;5111776;28;20050;-67
2022/04/15 08:04:59;;;;;;;0.40;0.28;;;16.50;50.20;;;;;;5111696;28;20047;-67
2022/04/15 08:07:24;;;;;;;0.80;0.22;;;16.50;50.20;;;;;;5111844;28;20424;-68
2022/04/15 08:09:53;;;;;;;0.60;0.20;;;16.50;50.20;;;;;;5112785;28;20114;-65
2022/04/15 08:12:18;;;;;;;0.50;0.30;;;16.50;50.20;;;;;;5111767;28;20429;-66
2022/04/15 08:14:44;;;;;;;0.65;0.22;;;16.50;50.10;;;;;;5111805;28;20126;-66
2022/04/15 08:17:10;;;;;;;0.30;0.20;;;16.50;50.20;;;;;;5112827;28;20063;-68
2022/04/15 08:19:36;;;;;;;0.60;0.20;;;16.50;50.10;;;;;;5111615;28;20506;-67
2022/04/15 08:22:02;;;;;;;1.23;0.35;;;16.50;50.10;;;;;;5111581;28;20382;-66
2022/04/15 08:24:27;;;;;;;0.32;0.20;;;16.50;50.10;;;;;;5111263;28;20051;-68
2022/04/15 08:26:56;;;;;;;2.00;0.50;;;16.50;50.10;;;;;;5112564;28;20039;-66
2022/04/15 08:29:22;;;;;;;0.50;0.20;;;16.50;50.00;;;;;;5111490;28;20036;-66
2022/04/15 08:31:47;;;;;;;0.73;0.30;;;16.50;50.00;;;;;;5111271;28;20108;-66
2022/04/15 08:34:16;;;;;;;0.95;0.20;;;16.50;50.00;;;;;;5111489;28;20075;-66
2022/04/15 08:36:42;;;;;;;0.77;0.20;;;16.50;50.00;;;;;;5111095;28;20039;-66
2022/04/15 08:39:07;;;;;;;0.68;0.30;;;16.50;50.00;;;;;;5111388;28;20047;-66
2022/04/15 08:41:40;;;;;;;0.60;0.30;;;16.50;50.00;;;;;;5111097;28;20106;-66
2022/04/15 08:44:06;;;;;;;1.20;0.22;;;16.50;50.00;;;;;;5111370;28;20435;-66
2022/04/15 08:46:32;;;;;;;1.27;0.32;;;16.50;50.00;;;;;;5111482;28;20047;-66
2022/04/15 08:49:00;;;;;;;0.80;0.25;;;16.50;50.00;;;;;;5110942;28;20074;-66
2022/04/15 08:51:27;;;;;;;1.02;0.30;;;16.50;50.00;;;;;;5112133;28;20044;-66
2022/04/15 08:53:54;;;;;;;1.65;0.38;;;16.50;50.00;;;;;;5111113;28;20054;-66
2022/04/15 08:56:22;;;;;;;1.17;0.40;;;16.50;49.90;;;;;;5111103;28;20035;-66
2022/04/15 08:58:48;;;;;;;1.35;0.65;;;16.50;49.80;;;;;;5111011;28;20491;-64
2022/04/15 09:01:14;;;;;;;1.30;0.40;;;16.50;49.90;;;;;;5111118;28;20047;-66
2022/04/15 09:03:40;;;;;;;0.20;0.20;;;16.50;49.80;;;;;;5110905;28;20376;-66
2022/04/15 09:06:14;;;;;;;1.38;0.40;;;16.50;49.80;;;;;;5110756;28;20048;-66
2022/04/15 09:09:03;;;;;;;1.40;0.30;;;16.60;49.90;;;;;;5112258;28;20043;-62
2022/04/15 09:11:31;;;;;;;1.40;0.20;;;16.60;49.80;;;;;;5114115;28;20524;-64
2022/04/15 09:13:57;;;;;;;1.40;0.50;;;16.60;49.80;;;;;;5116330;28;20036;-66
2022/04/15 09:16:23;;;;;;;1.10;0.22;;;16.60;49.80;;;;;;5116193;28;20036;-63
2022/04/15 09:18:49;;;;;;;0.60;0.30;;;16.60;49.70;;;;;;5114864;28;20124;-66
2022/04/15 09:21:21;;;;;;;0.95;0.38;;;16.60;49.60;;;;;;5116341;28;20043;-66
2022/04/15 09:23:49;;;;;;;1.17;0.50;;;16.60;49.70;;;;;;5116098;28;20042;-66
2022/04/15 09:26:15;;;;;;;1.58;0.60;;;16.60;49.60;;;;;;5114764;28;20043;-66
2022/04/15 09:28:41;;;;;;;1.05;0.45;;;16.50;49.60;;;;;;5114596;28;20039;-62
2022/04/15 09:31:15;;;;;;;1.10;0.43;;;16.60;49.60;;;;;;5115203;28;20032;-63
2022/04/15 09:33:58;;;;;;;0.82;0.30;;;16.60;49.60;;;;;;5114966;28;20038;-67
2022/04/15 09:36:25;;;;;;;0.60;0.32;;;16.60;49.60;;;;;;5114950;28;20065;-66
2022/04/15 09:38:57;;;;;;;1.02;0.30;;;16.60;49.60;;;;;;5114855;28;20039;-66
2022/04/15 09:41:24;;;;;;;0.80;0.30;;;16.60;49.50;;;;;;5114524;28;20051;-66
2022/04/15 09:43:54;;;;;;;1.05;0.40;;;16.60;49.50;;;;;;5114321;28;20055;-63
2022/04/15 09:46:21;;;;;;;1.07;0.50;;;16.70;49.50;;;;;;5115968;28;20032;-66
2022/04/15 09:51:56;;;;;;;1.15;0.57;;;16.70;49.40;;;;;;5171980;27;20105;-64
2022/04/15 09:57:04;;;;;;;1.00;0.50;;;16.70;49.30;;;;;;5130421;27;20678;-64
2022/04/15 09:59:30;;;;;;;1.25;0.45;;;16.70;49.30;;;;;;5129104;28;20046;-64
2022/04/15 10:01:57;;;;;;;2.00;0.55;;;16.70;49.30;;;;;;5129057;28;20035;-64
2022/04/15 10:04:24;;;;;;;1.85;0.60;;;16.70;49.30;;;;;;5129264;28;20126;-64
2022/04/15 10:06:54;;;;;;;0.90;0.55;;;16.70;49.30;;;;;;5130183;27;20035;-62
2022/04/15 10:09:21;;;;;;;1.13;0.50;;;16.70;49.30;;;;;;5128813;28;20046;-64
2022/04/15 10:11:48;;;;;;;2.35;0.52;;;16.70;49.30;;;;;;5130184;27;20371;-64
2022/04/15 10:14:19;;;;;;;2.35;0.50;;;16.70;49.20;;;;;;5128996;28;20051;-64
2022/04/15 10:16:44;;;;;;;0.90;0.40;;;16.70;49.20;;;;;;5130037;27;20039;-64
2022/04/15 10:19:11;;;;;;;1.10;0.40;;;16.70;49.10;;;;;;5128608;28;20065;-64
2022/04/15 10:21:40;;;;;;;2.60;0.82;;;16.70;49.10;;;;;;5128892;28;20051;-64
2022/04/15 10:24:10;;;;;;;1.05;0.47;;;16.80;49.20;;;;;;5128597;28;20110;-64
2022/04/15 10:26:41;;;;;;;0.97;0.50;;;16.80;49.10;;;;;;5128615;28;20040;-64
2022/04/15 10:29:09;;;;;;;1.52;0.50;;;16.80;49.10;;;;;;5129754;27;20725;-65
2022/04/15 10:31:40;;;;;;;2.08;0.50;;;16.80;49.10;;;;;;5128647;28;20123;-64
2022/04/15 10:36:56;;;;;;;1.63;0.73;;;16.80;49.00;;;;;;5130390;27;20320;-64
2022/04/15 10:39:23;;;;;;;1.58;0.50;;;16.80;48.90;;;;;;5130275;27;20045;-64
2022/04/15 10:44:35;;;;;;;1.15;0.63;;;16.70;48.80;;;;;;5130304;27;20768;-64
2022/04/15 10:50:03;;;;;;;1.90;0.80;;;16.80;48.80;;;;;;5130399;27;20414;-64
2022/04/15 10:52:30;;;;;;;0.73;0.40;;;16.90;48.70;;;;;;5129145;28;20070;-64
2022/04/15 10:54:59;;;;;;;1.15;0.50;;;16.90;48.70;;;;;;5129045;28;20042;-61
2022/04/15 10:57:33;;;;;;;1.17;0.40;;;16.90;48.60;;;;;;5129218;28;20112;-61
2022/04/15 11:08:26;;;;;;;1.13;0.60;;;17.00;48.40;;;;;;5130188;27;20403;-61
2022/04/15 11:16:39;;;;;;;1.20;0.50;;;17.00;48.20;;;;;;5130306;27;20338;-64
2022/04/15 11:19:04;;;;;;;1.30;0.82;;;17.10;48.00;;;;;;5129112;28;20050;-64
2022/04/15 11:24:12;;;;;;;1.75;0.50;;;17.10;47.90;;;;;;5130286;27;20407;-64
2022/04/15 11:26:43;;;;;;;2.55;0.40;;;17.20;47.90;;;;;;5129250;28;20040;-65
2022/04/15 11:29:11;;;;;;;0.95;0.50;;;17.20;47.80;;;;;;5129027;27;20036;-64
2022/04/15 11:31:38;;;;;;;1.20;0.30;;;17.20;47.70;;;;;;5129186;28;20035;-60
2022/04/15 11:36:47;;;;;;;1.38;0.50;;;17.20;47.70;;;;;;5130096;27;20439;-64
2022/04/15 11:39:15;;;;;;;0.80;0.38;;;17.30;47.60;;;;;;5125957;28;20513;-66
2022/04/15 11:41:44;;;;;;;1.55;0.35;;;17.20;47.50;;;;;;5126384;28;20042;-65
2022/04/15 11:44:10;;;;;;;0.60;0.30;;;17.20;47.50;;;;;;5108860;28;20507;-61
2022/04/15 11:51:57;;;;;;;0.93;0.50;;;17.30;47.50;;;;;;5128961;27;20400;-64
2022/04/15 11:54:39;;;;;;;1.20;0.30;;;17.20;47.50;;;;;;5126087;27;20046;-64
2022/04/15 11:57:06;;;;;;;1.08;0.50;;;17.20;47.50;;;;;;5123762;27;20042;-65
2022/04/15 11:59:40;;;;;;;1.25;0.55;;;17.20;47.60;;;;;;5110307;28;20360;-64
2022/04/15 12:02:06;;;;;;;1.20;0.30;;;17.20;47.60;;;;;;5128873;28;20035;-64
2022/04/15 12:04:32;;;;;;;1.48;0.52;;;17.20;47.60;;;;;;5128696;28;20509;-65
2022/04/15 12:06:58;;;;;;;1.63;0.40;;;17.20;47.60;;;;;;5128900;28;20122;-61
2022/04/15 12:09:25;;;;;;;0.82;0.47;;;17.20;47.60;;;;;;5128085;28;20040;-60
2022/04/15 12:11:51;;;;;;;1.55;0.55;;;17.20;47.70;;;;;;5129455;27;20039;-65
2022/04/15 12:14:18;;;;;;;2.05;0.30;;;17.10;47.90;;;;;;5128036;28;20119;-64
2022/04/15 12:16:45;;;;;;;3.45;0.40;;;17.10;48.00;;;;;;5125224;28;20059;-64
2022/04/15 12:19:12;;;;;;;1.13;0.50;;;17.20;48.00;;;;;;5128120;27;20042;-64
2022/04/15 12:21:38;;;;;;;2.15;0.43;;;17.10;48.00;;;;;;5127658;28;20043;-64
2022/04/15 12:26:47;;;;;;;2.00;0.45;;;17.10;48.60;;;;;;5129700;27;20439;-65
2022/04/15 12:37:50;;;;;;;0.70;0.40;;;17.20;48.80;;;;;;5129669;27;20350;-64
2022/04/15 12:42:56;;;;;;;2.17;0.40;;;17.20;48.70;;;;;;5130302;27;20358;-64
2022/04/15 12:45:25;;;;;;;1.83;0.50;;;17.20;48.60;;;;;;5129032;28;20046;-61
2022/04/15 12:48:07;;;;;;;2.65;0.40;;;17.20;48.50;;;;;;5129251;28;20050;-64
2022/04/15 12:50:35;;;;;;;2.25;0.70;;;17.20;48.50;;;;;;5129205;28;20114;-62
2022/04/15 12:53:13;;;;;;;0.55;0.40;;;17.10;48.40;;;;;;5128923;28;20053;-64
2022/04/15 12:55:38;;;;;;;0.63;0.30;;;17.10;48.30;;;;;;5130078;27;20039;-65
2022/04/15 13:00:59;;;;;;;1.17;0.38;;;17.20;48.30;;;;;;5130335;27;20695;-65
2022/04/15 13:03:27;;;;;;;3.20;0.57;;;17.20;48.20;;;;;;5128842;28;20395;-63
2022/04/15 13:05:54;;;;;;;1.15;0.73;;;17.20;48.20;;;;;;5129136;28;20043;-64
2022/04/15 13:08:21;;;;;;;1.55;0.40;;;17.20;48.10;;;;;;5129143;28;20039;-66
2022/04/15 13:10:48;;;;;;;1.05;0.40;;;17.20;48.10;;;;;;5128975;28;20078;-64
2022/04/15 13:13:15;;;;;;;1.42;0.40;;;17.20;48.10;;;;;;5128785;28;20051;-64
2022/04/15 13:15:41;;;;;;;0.90;0.40;;;17.10;48.10;;;;;;5129006;28;20364;-63
2022/04/15 13:18:07;;;;;;;1.90;0.50;;;17.20;48.10;;;;;;5128822;28;20039;-62
2022/04/15 13:20:33;;;;;;;1.23;0.50;;;17.20;48.10;;;;;;5129992;27;20546;-64
2022/04/15 13:22:59;;;;;;;1.50;0.50;;;17.10;48.00;;;;;;5128888;28;20131;-61
2022/04/15 13:25:25;;;;;;;1.45;0.40;;;17.20;48.10;;;;;;5128897;27;20053;-64
2022/04/15 13:27:51;;;;;;;1.00;0.50;;;17.20;48.00;;;;;;5129381;28;20043;-65
2022/04/15 13:30:17;;;;;;;1.20;0.50;;;17.20;48.00;;;;;;5127716;28;20304;-64
2022/04/15 13:32:43;;;;;;;0.98;0.30;;;17.20;47.90;;;;;;5128596;28;20075;-61
2022/04/15 13:35:09;;;;;;;1.08;0.60;;;17.20;47.80;;;;;;5128307;28;20071;-64
2022/04/15 13:37:35;;;;;;;1.67;0.85;;;17.30;47.80;;;;;;5129600;28;20031;-64
2022/04/15 13:40:02;;;;;;;1.08;0.40;;;17.30;47.80;;;;;;5129475;28;20058;-64
2022/04/15 13:42:28;;;;;;;1.83;0.47;;;17.30;47.70;;;;;;5128594;28;20110;-64
2022/04/15 13:44:55;;;;;;;1.45;0.40;;;17.30;47.60;;;;;;5129486;28;20039;-62